Wednesday, August 15, 2018, 7:10 AM EDT
Back to Local

KBHB, Bar Harbor, Hancock County-bar Harbor Airport

Location: Ellsworth, ME, United States Lat: 44.45
Local Time: 7:10 AM EDT (11:10 GMT) Lon: -68.367
Time Zone: US/Eastern Elev: 82 ft

Show me the last for .
Show Decoded

2018-08-15 06:56 METAR KBHB 151056Z AUTO 22004KT 1/2SM -RA FG OVC003 20/19 A2983 RMK AO2 RAB42
                 SLP106 P0000 T02000194 RVRNO $ =
2018-08-15 06:52 METAR KBHB 151052Z AUTO 21005KT 1/2SM -RA FG OVC003 19/19 A2983 RMK AO2 RAB42
                 P0000 RVRNO $ =
2018-08-15 06:24 METAR KBHB 151024Z AUTO 21005KT 1/4SM FG OVC003 19/19 A2983 RMK AO2 RVRNO $ =
2018-08-15 06:16 METAR KBHB 151016Z AUTO 21005KT 3/4SM BR OVC003 19/19 A2983 RMK AO2 RVRNO $ =
2018-08-15 05:56 METAR KBHB 150956Z AUTO 17007KT 1 1/2SM BR OVC003 19/19 A2982 RMK AO2 SLP101
                 T01940194 $ =
2018-08-15 05:50 METAR KBHB 150950Z AUTO 16007KT 1SM BR OVC003 19/19 A2982 RMK AO2 RVRNO $ =
2018-08-15 05:06 METAR KBHB 150906Z AUTO 16005KT 1/2SM FG OVC003 20/20 A2981 RMK AO2 RVRNO $ =
2018-08-15 04:56 METAR KBHB 150856Z AUTO 17006KT 1SM BR OVC003 20/19 A2982 RMK AO2 SLP100
                 T02000194 58009 RVRNO $ =
2018-08-15 04:41 METAR KBHB 150841Z AUTO 17006KT 1 1/4SM BR OVC003 20/19 A2981 RMK AO2 $ =
2018-08-15 04:38 METAR KBHB 150838Z AUTO 16006KT 3/4SM BR OVC003 20/19 A2981 RMK AO2 RVRNO $ =
2018-08-15 03:56 METAR KBHB 150756Z AUTO 00000KT 1/4SM FG OVC003 20/20 A2982 RMK AO2 SLP102
                 T02000200 RVRNO $ =
2018-08-15 03:16 METAR KBHB 150716Z AUTO 00000KT 1/4SM FG OVC003 19/19 A2984 RMK AO2 RVRNO $ =
2018-08-15 02:56 METAR KBHB 150656Z AUTO 17003KT 1/2SM FG OVC003 19/19 A2984 RMK AO2 SLP109
                 T01940194 RVRNO $ =
2018-08-15 02:33 METAR KBHB 150633Z AUTO 00000KT 1/4SM FG OVC003 20/20 A2984 RMK AO2 RVRNO $ =
2018-08-15 02:06 METAR KBHB 150606Z AUTO 00000KT 1/2SM FG OVC003 20/19 A2985 RMK AO2 RVRNO $ =
2018-08-15 02:00 METAR KBHB 150600Z AUTO 00000KT 1SM BR OVC003 20/19 A2985 RMK AO2 RVRNO $ =
2018-08-15 01:56 METAR KBHB 150556Z AUTO 13003KT 2SM BR OVC003 20/19 A2985 RMK AO2 SLP111
                 T02000194 10206 20189 56009 $ =
2018-08-15 01:51 METAR KBHB 150551Z AUTO 14003KT 5SM BR OVC003 20/20 A2985 RMK AO2 $ =
2018-08-15 00:56 METAR KBHB 150456Z AUTO 00000KT 4SM BR OVC005 19/19 A2986 RMK AO2 CIG 003V009
                 SLP116 T01940189 $ =
2018-08-15 00:26 METAR KBHB 150426Z AUTO 00000KT 6SM BR OVC004 19/19 A2987 RMK AO2 CIG 002V008 $
                 =
2018-08-14 23:56 METAR KBHB 150356Z AUTO 00000KT 10SM BKN002 OVC013 20/19 A2988 RMK AO2 SLP120
                 T02000194 $ =
2018-08-14 23:54 METAR KBHB 150354Z AUTO 00000KT 10SM OVC002 20/19 A2988 RMK AO2 $ =
2018-08-14 22:56 METAR KBHB 150256Z AUTO 18003KT 8SM OVC004 20/19 A2987 RMK AO2 SLP120 T02000194
                 58000 $ =
2018-08-14 21:56 METAR KBHB 150156Z AUTO 19003KT 10SM OVC006 20/20 A2988 RMK AO2 CIG 003V009
                 SLP122 T02000200 $ =
2018-08-14 21:09 METAR KBHB 150109Z AUTO 16003KT 8SM OVC002 20/19 A2988 RMK AO2 $ =
2018-08-14 20:56 METAR KBHB 150056Z AUTO 00000KT 10SM OVC004 20/19 A2988 RMK AO2 SLP122 T02000194
                 $ =
2018-08-14 20:40 METAR KBHB 150040Z AUTO 00000KT 10SM OVC004 20/19 A2988 RMK AO2 $ =
2018-08-14 19:56 METAR KBHB 142356Z AUTO 00000KT 10SM OVC008 20/19 A2988 RMK AO2 SLP120 T02000189
                 10228 20200 402280178 57003 $ =
2018-08-14 18:56 METAR KBHB 142256Z AUTO 20005KT 10SM OVC008 21/21 A2987 RMK AO2 SLP119 T02110206
                 $ =
2018-08-14 18:10 METAR KBHB 142210Z AUTO 20005KT 10SM OVC008 22/20 A2988 RMK AO2 $ =
2018-08-14 17:56 METAR KBHB 142156Z AUTO 22005KT 10SM OVC010 22/21 A2989 RMK AO2 CIG 008V013
                 SLP124 T02220206 $ =
2018-08-14 16:56 METAR KBHB 142056Z AUTO 14003KT 10SM OVC014 22/20 A2988 RMK AO2 SLP123 T02220200
                 57012 $ =
2018-08-14 15:56 METAR KBHB 141956Z AUTO 11005KT 10SM OVC014 22/20 A2989 RMK AO2 SLP126 T02220200
                 $ =
2018-08-14 15:38 METAR KBHB 141938Z AUTO 13005KT 10SM OVC016 23/21 A2990 RMK AO2 $ =
2018-08-14 14:56 METAR KBHB 141856Z AUTO 09005KT 10SM OVC014 22/20 A2991 RMK AO2 SLP132 T02170200
                 $ =
2018-08-14 13:56 METAR KBHB 141756Z AUTO 09006KT 10SM OVC014 22/20 A2992 RMK AO2 SLP135 60000
                 T02170200 10217 20183 58012 $ =
2018-08-14 13:33 METAR KBHB 141733Z AUTO 08006KT 10SM FEW003 OVC014 21/19 A2993 RMK AO2 $ =
2018-08-14 12:56 METAR KBHB 141656Z AUTO 08006KT 5SM BR OVC003 20/19 A2994 RMK AO2 SLP142
                 T02000194 $ =
2018-08-14 11:56 METAR KBHB 141556Z AUTO 08005KT 4SM BR OVC003 20/19 A2995 RMK AO2 RAE00 SLP146
                 P0000 T02000194 $ =
2018-08-14 11:54 METAR KBHB 141554Z AUTO 08005KT 3SM BR OVC003 19/19 A2995 RMK AO2 RAE00 P0000 $
                 =
2018-08-14 11:44 METAR KBHB 141544Z AUTO 09005KT 1 3/4SM BR OVC003 19/19 A2995 RMK AO2 VIS 1V4
                 RAE00 P0000 $ =
2018-08-14 10:56 METAR KBHB 141456Z AUTO VRB03KT 5SM -RA BR OVC003 19/19 A2996 RMK AO2 RAB45
                 SLP148 P0000 60000 T01940189 58005 $ =
2018-08-14 10:50 METAR KBHB 141450Z AUTO 08004KT 3SM -RA BR OVC003 19/19 A2996 RMK AO2 RAB45
                 P0000 $ =
2018-08-14 10:46 METAR KBHB 141446Z AUTO 07004KT 1 1/4SM -RA BR OVC003 19/19 A2996 RMK AO2 RAB45
                 P0000 $ =
2018-08-14 10:38 METAR KBHB 141438Z AUTO 09004KT 3/4SM BR OVC003 19/19 A2996 RMK AO2 RVRNO $ =
2018-08-14 10:25 METAR KBHB 141425Z AUTO 10003KT 1 1/4SM BR OVC003 19/19 A2996 RMK AO2 $ =
2018-08-14 10:16 METAR KBHB 141416Z AUTO 10004KT 3/4SM BR OVC003 19/19 A2996 RMK AO2 RVRNO $ =
2018-08-14 10:08 METAR KBHB 141408Z AUTO 11005KT 1 3/4SM BR OVC003 19/19 A2997 RMK AO2 VIS 1V5 $
                 =
2018-08-14 09:56 METAR KBHB 141356Z AUTO 07004KT 4SM BR OVC003 19/19 A2997 RMK AO2 SLP151
                 T01890189 $ =
2018-08-14 09:52 METAR KBHB 141352Z AUTO VRB03KT 3SM BR OVC003 19/19 A2997 RMK AO2 $ =
2018-08-14 09:47 METAR KBHB 141347Z AUTO 07005KT 1 1/4SM BR OVC003 19/19 A2997 RMK AO2 $ =
2018-08-14 09:43 METAR KBHB 141343Z AUTO 07005KT 3/4SM BR OVC003 19/19 A2997 RMK AO2 RVRNO $ =
2018-08-14 09:13 METAR KBHB 141313Z AUTO 08004KT 1/4SM FG OVC003 18/18 A2997 RMK AO2 RVRNO $ =
2018-08-14 08:56 METAR KBHB 141256Z AUTO 08003KT 1/2SM FG OVC003 18/18 A2997 RMK AO2 SLP153
                 T01830183 RVRNO $ =
2018-08-14 08:40 METAR KBHB 141240Z AUTO 08004KT 3/4SM BR OVC003 18/18 A2997 RMK AO2 RVRNO $ =
2018-08-14 08:34 METAR KBHB 141234Z AUTO 08004KT 1 3/4SM BR OVC003 18/18 A2997 RMK AO2 VIS 3/4V5
                 $ =
2018-08-14 07:56 METAR KBHB 141156Z AUTO 09005KT 5SM BR OVC003 18/18 A2997 RMK AO2 SLP153
                 T01830178 10183 20178 53000 $ =
2018-08-14 07:52 METAR KBHB 141152Z AUTO VRB04KT 3SM BR OVC003 18/18 A2997 RMK AO2 $ =
2018-08-14 07:43 METAR KBHB 141143Z AUTO 10004KT 1 1/4SM BR OVC003 18/18 A2997 RMK AO2 $ =
2018-08-14 07:31 METAR KBHB 141131Z AUTO 00000KT 3/4SM BR OVC003 18/18 A2997 RMK AO2 RVRNO $ =
2018-08-14 07:26 METAR KBHB 141126Z AUTO 12003KT 1 1/2SM BR OVC003 18/18 A2997 RMK AO2 $ =

Support USWX by starting your Amazon purchase here.